sensor_id;sensor_type;location;lat;lon;timestamp;pressure;altitude;pressure_sealevel;temperature;humidity
30897;BME280;64229;52.246;21.054;2023-12-20T00:01:27;99726.06;;;6.46;100.00
30897;BME280;64229;52.246;21.054;2023-12-20T00:03:52;99722.41;;;6.52;100.00
30897;BME280;64229;52.246;21.054;2023-12-20T00:06:18;99719.44;;;6.48;100.00
30897;BME280;64229;52.246;21.054;2023-12-20T00:08:43;99719.69;;;6.47;100.00
30897;BME280;64229;52.246;21.054;2023-12-20T00:11:09;99716.00;;;6.48;100.00
30897;BME280;64229;52.246;21.054;2023-12-20T00:13:34;99713.56;;;6.41;100.00
30897;BME280;64229;52.246;21.054;2023-12-20T00:16:00;99710.91;;;6.41;100.00
30897;BME280;64229;52.246;21.054;2023-12-20T00:18:25;99709.41;;;6.50;100.00
30897;BME280;64229;52.246;21.054;2023-12-20T00:20:50;99702.72;;;6.43;100.00
30897;BME280;64229;52.246;21.054;2023-12-20T00:23:16;99707.41;;;6.35;100.00
30897;BME280;64229;52.246;21.054;2023-12-20T00:25:41;99709.00;;;6.36;100.00
30897;BME280;64229;52.246;21.054;2023-12-20T00:28:06;99708.00;;;6.43;100.00
30897;BME280;64229;52.246;21.054;2023-12-20T00:30:32;99708.84;;;6.48;100.00
30897;BME280;64229;52.246;21.054;2023-12-20T00:32:57;99703.25;;;6.45;100.00
30897;BME280;64229;52.246;21.054;2023-12-20T00:35:22;99697.44;;;6.48;100.00
30897;BME280;64229;52.246;21.054;2023-12-20T00:37:48;99699.56;;;6.46;100.00
30897;BME280;64229;52.246;21.054;2023-12-20T00:40:13;99695.31;;;6.45;100.00
30897;BME280;64229;52.246;21.054;2023-12-20T00:42:38;99695.53;;;6.38;100.00
30897;BME280;64229;52.246;21.054;2023-12-20T00:45:04;99701.06;;;6.36;100.00
30897;BME280;64229;52.246;21.054;2023-12-20T00:47:32;99696.34;;;6.44;100.00
30897;BME280;64229;52.246;21.054;2023-12-20T00:49:58;99696.47;;;6.59;100.00
30897;BME280;64229;52.246;21.054;2023-12-20T00:52:23;99689.25;;;6.49;100.00
30897;BME280;64229;52.246;21.054;2023-12-20T00:54:49;99685.53;;;6.18;100.00
30897;BME280;64229;52.246;21.054;2023-12-20T00:57:14;99677.03;;;6.48;100.00
30897;BME280;64229;52.246;21.054;2023-12-20T00:59:40;99674.38;;;6.48;100.00
30897;BME280;64229;52.246;21.054;2023-12-20T01:02:05;99682.50;;;6.36;100.00
30897;BME280;64229;52.246;21.054;2023-12-20T01:04:31;99682.03;;;6.45;100.00
30897;BME280;64229;52.246;21.054;2023-12-20T01:06:56;99659.75;;;6.14;100.00
30897;BME280;64229;52.246;21.054;2023-12-20T01:09:21;99684.69;;;6.45;100.00
30897;BME280;64229;52.246;21.054;2023-12-20T01:11:51;99679.63;;;6.38;100.00
30897;BME280;64229;52.246;21.054;2023-12-20T01:14:16;99669.75;;;6.33;100.00
30897;BME280;64229;52.246;21.054;2023-12-20T01:16:42;99668.41;;;6.31;100.00
30897;BME280;64229;52.246;21.054;2023-12-20T01:19:07;99669.75;;;6.33;100.00
30897;BME280;64229;52.246;21.054;2023-12-20T01:21:32;99680.34;;;6.33;100.00
30897;BME280;64229;52.246;21.054;2023-12-20T01:23:58;99677.28;;;6.47;100.00
30897;BME280;64229;52.246;21.054;2023-12-20T01:26:23;99665.53;;;6.37;100.00
30897;BME280;64229;52.246;21.054;2023-12-20T01:28:49;99668.44;;;6.36;100.00
30897;BME280;64229;52.246;21.054;2023-12-20T01:31:14;99661.56;;;6.35;100.00
30897;BME280;64229;52.246;21.054;2023-12-20T01:33:39;99659.88;;;6.56;100.00
30897;BME280;64229;52.246;21.054;2023-12-20T01:36:05;99652.72;;;6.56;100.00
30897;BME280;64229;52.246;21.054;2023-12-20T01:38:30;99658.16;;;6.40;100.00
30897;BME280;64229;52.246;21.054;2023-12-20T01:40:55;99652.69;;;6.51;100.00
30897;BME280;64229;52.246;21.054;2023-12-20T01:43:21;99651.13;;;6.55;100.00
30897;BME280;64229;52.246;21.054;2023-12-20T01:45:47;99656.22;;;6.62;100.00
30897;BME280;64229;52.246;21.054;2023-12-20T01:48:12;99656.50;;;6.33;100.00
30897;BME280;64229;52.246;21.054;2023-12-20T01:50:39;99649.69;;;6.43;100.00
30897;BME280;64229;52.246;21.054;2023-12-20T01:53:07;99637.59;;;6.25;100.00
30897;BME280;64229;52.246;21.054;2023-12-20T01:55:35;99648.66;;;6.17;100.00
30897;BME280;64229;52.246;21.054;2023-12-20T01:58:02;99649.31;;;6.29;100.00
30897;BME280;64229;52.246;21.054;2023-12-20T02:00:29;99649.19;;;6.46;100.00
30897;BME280;64229;52.246;21.054;2023-12-20T02:02:55;99634.59;;;6.43;100.00
30897;BME280;64229;52.246;21.054;2023-12-20T02:05:21;99628.66;;;6.31;100.00
30897;BME280;64229;52.246;21.054;2023-12-20T02:07:47;99641.56;;;6.22;100.00
30897;BME280;64229;52.246;21.054;2023-12-20T02:10:13;99627.16;;;6.13;100.00
30897;BME280;64229;52.246;21.054;2023-12-20T02:12:38;99641.38;;;6.29;100.00
30897;BME280;64229;52.246;21.054;2023-12-20T02:15:04;99622.75;;;6.24;100.00
30897;BME280;64229;52.246;21.054;2023-12-20T02:17:31;99633.63;;;6.22;100.00
30897;BME280;64229;52.246;21.054;2023-12-20T02:19:57;99625.56;;;6.12;100.00
30897;BME280;64229;52.246;21.054;2023-12-20T02:22:22;99625.22;;;6.30;100.00
30897;BME280;64229;52.246;21.054;2023-12-20T02:24:47;99601.34;;;5.98;100.00
30897;BME280;64229;52.246;21.054;2023-12-20T02:27:14;99618.13;;;6.09;100.00
30897;BME280;64229;52.246;21.054;2023-12-20T02:29:40;99630.94;;;6.17;100.00
30897;BME280;64229;52.246;21.054;2023-12-20T02:32:05;99618.78;;;6.21;100.00
30897;BME280;64229;52.246;21.054;2023-12-20T02:34:31;99597.56;;;6.21;100.00
30897;BME280;64229;52.246;21.054;2023-12-20T02:36:56;99600.75;;;6.18;100.00
30897;BME280;64229;52.246;21.054;2023-12-20T02:39:22;99587.84;;;6.00;100.00
30897;BME280;64229;52.246;21.054;2023-12-20T02:41:48;99602.88;;;5.94;100.00
30897;BME280;64229;52.246;21.054;2023-12-20T02:44:13;99600.16;;;5.89;100.00
30897;BME280;64229;52.246;21.054;2023-12-20T02:46:39;99592.16;;;5.84;100.00
30897;BME280;64229;52.246;21.054;2023-12-20T02:49:05;99597.53;;;5.89;100.00
30897;BME280;64229;52.246;21.054;2023-12-20T02:51:30;99590.78;;;6.03;100.00
30897;BME280;64229;52.246;21.054;2023-12-20T02:53:56;99588.94;;;6.04;100.00
30897;BME280;64229;52.246;21.054;2023-12-20T02:56:21;99596.06;;;5.98;100.00
30897;BME280;64229;52.246;21.054;2023-12-20T02:58:46;99589.28;;;6.13;100.00
30897;BME280;64229;52.246;21.054;2023-12-20T03:01:12;99587.97;;;6.15;100.00
30897;BME280;64229;52.246;21.054;2023-12-20T03:03:37;99586.09;;;6.11;100.00
30897;BME280;64229;52.246;21.054;2023-12-20T03:06:02;99592.28;;;6.21;100.00
30897;BME280;64229;52.246;21.054;2023-12-20T03:08:28;99586.63;;;6.13;100.00
30897;BME280;64229;52.246;21.054;2023-12-20T03:10:53;99585.28;;;6.10;100.00
30897;BME280;64229;52.246;21.054;2023-12-20T03:13:19;99585.56;;;6.08;100.00
30897;BME280;64229;52.246;21.054;2023-12-20T03:15:45;99581.47;;;5.96;100.00
30897;BME280;64229;52.246;21.054;2023-12-20T03:18:10;99589.03;;;5.87;100.00
30897;BME280;64229;52.246;21.054;2023-12-20T03:20:36;99583.69;;;5.82;100.00
30897;BME280;64229;52.246;21.054;2023-12-20T03:23:01;99573.44;;;6.18;100.00
30897;BME280;64229;52.246;21.054;2023-12-20T03:25:26;99595.28;;;6.35;100.00
30897;BME280;64229;52.246;21.054;2023-12-20T03:27:52;99590.69;;;6.20;100.00
30897;BME280;64229;52.246;21.054;2023-12-20T03:30:18;99590.34;;;6.12;100.00
30897;BME280;64229;52.246;21.054;2023-12-20T03:32:43;99590.84;;;6.08;100.00
30897;BME280;64229;52.246;21.054;2023-12-20T03:35:09;99577.63;;;6.14;100.00
30897;BME280;64229;52.246;21.054;2023-12-20T03:37:34;99571.50;;;6.08;100.00
30897;BME280;64229;52.246;21.054;2023-12-20T03:39:59;99574.34;;;6.01;100.00
30897;BME280;64229;52.246;21.054;2023-12-20T03:42:25;99571.50;;;6.08;100.00
30897;BME280;64229;52.246;21.054;2023-12-20T03:44:50;99560.91;;;6.08;100.00
30897;BME280;64229;52.246;21.054;2023-12-20T03:47:15;99561.63;;;5.98;100.00
30897;BME280;64229;52.246;21.054;2023-12-20T03:49:41;99569.84;;;6.02;100.00
30897;BME280;64229;52.246;21.054;2023-12-20T03:52:06;99584.13;;;5.96;100.00
30897;BME280;64229;52.246;21.054;2023-12-20T03:54:32;99574.81;;;5.93;100.00
30897;BME280;64229;52.246;21.054;2023-12-20T03:56:58;99566.94;;;6.03;100.00
30897;BME280;64229;52.246;21.054;2023-12-20T03:59:23;99572.56;;;6.07;100.00
30897;BME280;64229;52.246;21.054;2023-12-20T04:01:48;99571.81;;;6.17;100.00
30897;BME280;64229;52.246;21.054;2023-12-20T04:04:14;99569.34;;;6.05;100.00
30897;BME280;64229;52.246;21.054;2023-12-20T04:06:39;99565.34;;;6.02;100.00
30897;BME280;64229;52.246;21.054;2023-12-20T04:09:05;99561.97;;;6.07;100.00
30897;BME280;64229;52.246;21.054;2023-12-20T04:11:30;99570.44;;;6.09;100.00
30897;BME280;64229;52.246;21.054;2023-12-20T04:13:55;99569.66;;;6.08;100.00
30897;BME280;64229;52.246;21.054;2023-12-20T04:16:21;99561.19;;;6.12;100.00
30897;BME280;64229;52.246;21.054;2023-12-20T04:18:46;99569.31;;;6.00;100.00
30897;BME280;64229;52.246;21.054;2023-12-20T04:21:11;99575.59;;;5.94;100.00
30897;BME280;64229;52.246;21.054;2023-12-20T04:23:37;99584.66;;;5.98;100.00
30897;BME280;64229;52.246;21.054;2023-12-20T04:26:02;99566.31;;;5.91;100.00
30897;BME280;64229;52.246;21.054;2023-12-20T04:28:28;99565.41;;;6.07;100.00
30897;BME280;64229;52.246;21.054;2023-12-20T04:30:56;99577.06;;;6.06;100.00
30897;BME280;64229;52.246;21.054;2023-12-20T04:33:22;99576.09;;;6.18;100.00
30897;BME280;64229;52.246;21.054;2023-12-20T04:35:48;99562.03;;;6.17;100.00
30897;BME280;64229;52.246;21.054;2023-12-20T04:38:13;99555.56;;;6.03;100.00
30897;BME280;64229;52.246;21.054;2023-12-20T04:40:38;99563.13;;;6.21;100.00
30897;BME280;64229;52.246;21.054;2023-12-20T04:43:06;99571.41;;;6.30;100.00
30897;BME280;64229;52.246;21.054;2023-12-20T04:45:31;99577.78;;;6.34;100.00
30897;BME280;64229;52.246;21.054;2023-12-20T04:47:56;99578.38;;;6.41;100.00
30897;BME280;64229;52.246;21.054;2023-12-20T04:50:22;99573.66;;;6.16;100.00
30897;BME280;64229;52.246;21.054;2023-12-20T04:52:47;99575.50;;;6.11;100.00
30897;BME280;64229;52.246;21.054;2023-12-20T04:55:12;99573.94;;;6.15;100.00
30897;BME280;64229;52.246;21.054;2023-12-20T04:57:38;99573.34;;;6.07;100.00
30897;BME280;64229;52.246;21.054;2023-12-20T05:00:05;99564.94;;;5.89;100.00
30897;BME280;64229;52.246;21.054;2023-12-20T05:02:30;99572.22;;;5.98;100.00
30897;BME280;64229;52.246;21.054;2023-12-20T05:04:56;99571.19;;;6.04;100.00
30897;BME280;64229;52.246;21.054;2023-12-20T05:07:21;99563.50;;;6.03;100.00
30897;BME280;64229;52.246;21.054;2023-12-20T05:09:47;99563.38;;;6.20;100.00
30897;BME280;64229;52.246;21.054;2023-12-20T05:12:12;99560.84;;;6.03;100.00
30897;BME280;64229;52.246;21.054;2023-12-20T05:14:37;99560.56;;;5.99;100.00
30897;BME280;64229;52.246;21.054;2023-12-20T05:17:03;99553.66;;;5.98;100.00
30897;BME280;64229;52.246;21.054;2023-12-20T05:19:28;99546.22;;;5.95;100.00
30897;BME280;64229;52.246;21.054;2023-12-20T05:21:54;99551.16;;;5.87;100.00
30897;BME280;64229;52.246;21.054;2023-12-20T05:24:19;99548.59;;;5.70;100.00
30897;BME280;64229;52.246;21.054;2023-12-20T05:26:44;99562.66;;;5.70;100.00
30897;BME280;64229;52.246;21.054;2023-12-20T05:29:10;99550.81;;;5.78;100.00
30897;BME280;64229;52.246;21.054;2023-12-20T05:31:35;99550.81;;;5.78;100.00
30897;BME280;64229;52.246;21.054;2023-12-20T05:34:01;99546.66;;;5.87;100.00
30897;BME280;64229;52.246;21.054;2023-12-20T05:36:26;99543.66;;;6.05;100.00
30897;BME280;64229;52.246;21.054;2023-12-20T05:38:51;99545.13;;;6.23;100.00
30897;BME280;64229;52.246;21.054;2023-12-20T05:41:17;99543.72;;;6.16;100.00
30897;BME280;64229;52.246;21.054;2023-12-20T05:43:42;99543.25;;;6.19;100.00
30897;BME280;64229;52.246;21.054;2023-12-20T05:46:10;99543.66;;;6.05;100.00
30897;BME280;64229;52.246;21.054;2023-12-20T05:48:35;99545.97;;;5.97;100.00
30897;BME280;64229;52.246;21.054;2023-12-20T05:51:00;99539.09;;;6.33;100.00
30897;BME280;64229;52.246;21.054;2023-12-20T05:53:26;99541.59;;;6.13;100.00
30897;BME280;64229;52.246;21.054;2023-12-20T05:55:51;99539.13;;;6.01;100.00
30897;BME280;64229;52.246;21.054;2023-12-20T05:58:16;99543.44;;;6.12;100.00
30897;BME280;64229;52.246;21.054;2023-12-20T06:00:42;99538.03;;;6.29;100.00
30897;BME280;64229;52.246;21.054;2023-12-20T06:03:07;99538.31;;;6.37;100.00
30897;BME280;64229;52.246;21.054;2023-12-20T06:05:32;99540.16;;;6.37;100.00
30897;BME280;64229;52.246;21.054;2023-12-20T06:07:58;99533.38;;;6.09;100.00
30897;BME280;64229;52.246;21.054;2023-12-20T06:10:27;99539.72;;;6.08;100.00
30897;BME280;64229;52.246;21.054;2023-12-20T06:12:52;99550.41;;;6.23;100.00
30897;BME280;64229;52.246;21.054;2023-12-20T06:15:18;99549.16;;;6.31;100.00
30897;BME280;64229;52.246;21.054;2023-12-20T06:17:43;99544.78;;;6.15;100.00
30897;BME280;64229;52.246;21.054;2023-12-20T06:20:09;99542.72;;;6.22;100.00
30897;BME280;64229;52.246;21.054;2023-12-20T06:22:35;99553.53;;;6.52;100.00
30897;BME280;64229;52.246;21.054;2023-12-20T06:25:01;99550.63;;;6.54;100.00
30897;BME280;64229;52.246;21.054;2023-12-20T06:27:27;99554.22;;;6.37;100.00
30897;BME280;64229;52.246;21.054;2023-12-20T06:29:52;99552.28;;;6.23;100.00
30897;BME280;64229;52.246;21.054;2023-12-20T06:32:17;99555.25;;;6.31;100.00
30897;BME280;64229;52.246;21.054;2023-12-20T06:34:43;99548.34;;;6.30;100.00
30897;BME280;64229;52.246;21.054;2023-12-20T06:37:08;99551.09;;;6.08;100.00
30897;BME280;64229;52.246;21.054;2023-12-20T06:39:33;99547.88;;;6.01;100.00
30897;BME280;64229;52.246;21.054;2023-12-20T06:41:59;99547.06;;;6.01;100.00
30897;BME280;64229;52.246;21.054;2023-12-20T06:44:25;99543.66;;;6.05;100.00
30897;BME280;64229;52.246;21.054;2023-12-20T06:46:50;99549.97;;;5.99;100.00
30897;BME280;64229;52.246;21.054;2023-12-20T06:49:15;99549.81;;;6.16;100.00
30897;BME280;64229;52.246;21.054;2023-12-20T06:51:41;99558.50;;;6.44;100.00
30897;BME280;64229;52.246;21.054;2023-12-20T06:54:06;99546.63;;;6.14;100.00
30897;BME280;64229;52.246;21.054;2023-12-20T06:56:32;99549.88;;;6.21;100.00
30897;BME280;64229;52.246;21.054;2023-12-20T06:58:57;99547.97;;;6.17;100.00
30897;BME280;64229;52.246;21.054;2023-12-20T07:01:23;99556.31;;;6.30;100.00
30897;BME280;64229;52.246;21.054;2023-12-20T07:03:48;99550.78;;;6.05;100.00
30897;BME280;64229;52.246;21.054;2023-12-20T07:06:13;99550.06;;;6.09;100.00
30897;BME280;64229;52.246;21.054;2023-12-20T07:08:41;99540.28;;;6.15;100.00
30897;BME280;64229;52.246;21.054;2023-12-20T07:11:06;99543.00;;;6.25;100.00
30897;BME280;64229;52.246;21.054;2023-12-20T07:13:32;99554.75;;;6.34;100.00
30897;BME280;64229;52.246;21.054;2023-12-20T07:15:57;99544.84;;;6.20;100.00
30897;BME280;64229;52.246;21.054;2023-12-20T07:18:22;99552.34;;;6.33;100.00
30897;BME280;64229;52.246;21.054;2023-12-20T07:20:48;99558.09;;;6.25;100.00
30897;BME280;64229;52.246;21.054;2023-12-20T07:23:13;99562.34;;;6.26;100.00
30897;BME280;64229;52.246;21.054;2023-12-20T07:25:38;99549.41;;;6.29;100.00
30897;BME280;64229;52.246;21.054;2023-12-20T07:28:04;99556.84;;;6.32;100.00
30897;BME280;64229;52.246;21.054;2023-12-20T07:30:30;99563.66;;;6.18;100.00
30897;BME280;64229;52.246;21.054;2023-12-20T07:32:55;99561.38;;;6.37;100.00
30897;BME280;64229;52.246;21.054;2023-12-20T07:35:20;99556.94;;;6.48;100.00
30897;BME280;64229;52.246;21.054;2023-12-20T07:37:46;99557.94;;;6.36;100.00
30897;BME280;64229;52.246;21.054;2023-12-20T07:40:11;99548.91;;;6.32;100.00
30897;BME280;64229;52.246;21.054;2023-12-20T07:42:36;99553.34;;;6.27;100.00
30897;BME280;64229;52.246;21.054;2023-12-20T07:45:03;99538.56;;;5.99;100.00
30897;BME280;64229;52.246;21.054;2023-12-20T07:47:28;99556.97;;;6.16;100.00
30897;BME280;64229;52.246;21.054;2023-12-20T07:49:54;99557.84;;;6.26;100.00
30897;BME280;64229;52.246;21.054;2023-12-20T07:52:19;99554.03;;;6.12;100.00
30897;BME280;64229;52.246;21.054;2023-12-20T07:54:45;99558.75;;;6.05;100.00
30897;BME280;64229;52.246;21.054;2023-12-20T07:57:11;99534.09;;;6.04;100.00
30897;BME280;64229;52.246;21.054;2023-12-20T07:59:37;99547.31;;;5.99;100.00
30897;BME280;64229;52.246;21.054;2023-12-20T08:02:02;99537.78;;;5.98;100.00
30897;BME280;64229;52.246;21.054;2023-12-20T08:04:28;99528.31;;;6.07;100.00
30897;BME280;64229;52.246;21.054;2023-12-20T08:06:53;99545.38;;;6.22;100.00
30897;BME280;64229;52.246;21.054;2023-12-20T08:09:19;99552.16;;;6.45;100.00
30897;BME280;64229;52.246;21.054;2023-12-20T08:11:47;99544.59;;;6.26;100.00
30897;BME280;64229;52.246;21.054;2023-12-20T08:14:13;99555.97;;;6.22;100.00
30897;BME280;64229;52.246;21.054;2023-12-20T08:16:39;99552.38;;;6.06;100.00
30897;BME280;64229;52.246;21.054;2023-12-20T08:19:04;99546.69;;;6.19;100.00
30897;BME280;64229;52.246;21.054;2023-12-20T08:21:30;99536.97;;;5.98;100.00
30897;BME280;64229;52.246;21.054;2023-12-20T08:23:55;99543.69;;;6.11;100.00
30897;BME280;64229;52.246;21.054;2023-12-20T08:26:21;99548.63;;;6.34;100.00
30897;BME280;64229;52.246;21.054;2023-12-20T08:28:48;99525.59;;;5.97;100.00
30897;BME280;64229;52.246;21.054;2023-12-20T08:31:14;99537.56;;;6.05;100.00
30897;BME280;64229;52.246;21.054;2023-12-20T08:33:41;99541.41;;;6.24;100.00
30897;BME280;64229;52.246;21.054;2023-12-20T08:36:06;99540.78;;;6.07;100.00
30897;BME280;64229;52.246;21.054;2023-12-20T08:38:32;99541.13;;;6.21;100.00
30897;BME280;64229;52.246;21.054;2023-12-20T08:40:57;99552.25;;;6.18;100.00
30897;BME280;64229;52.246;21.054;2023-12-20T08:43:22;99543.69;;;6.11;100.00
30897;BME280;64229;52.246;21.054;2023-12-20T08:45:48;99537.94;;;6.19;100.00
30897;BME280;64229;52.246;21.054;2023-12-20T08:48:13;99543.78;;;6.21;100.00
30897;BME280;64229;52.246;21.054;2023-12-20T08:50:38;99548.91;;;6.32;100.00
30897;BME280;64229;52.246;21.054;2023-12-20T08:53:04;99539.81;;;6.23;100.00
30897;BME280;64229;52.246;21.054;2023-12-20T08:55:29;99537.78;;;6.35;100.00
30897;BME280;64229;52.246;21.054;2023-12-20T08:57:56;99544.25;;;6.50;100.00
30897;BME280;64229;52.246;21.054;2023-12-20T09:00:21;99548.13;;;6.37;100.00
30897;BME280;64229;52.246;21.054;2023-12-20T09:02:49;99529.09;;;6.40;100.00
30897;BME280;64229;52.246;21.054;2023-12-20T09:05:14;99538.75;;;6.24;100.00
30897;BME280;64229;52.246;21.054;2023-12-20T09:07:40;99532.91;;;6.17;100.00
30897;BME280;64229;52.246;21.054;2023-12-20T09:10:06;99535.09;;;6.30;100.00
30897;BME280;64229;52.246;21.054;2023-12-20T09:12:31;99522.91;;;6.29;100.00
30897;BME280;64229;52.246;21.054;2023-12-20T09:14:56;99524.19;;;6.22;100.00
30897;BME280;64229;52.246;21.054;2023-12-20T09:17:22;99524.75;;;6.29;100.00
30897;BME280;64229;52.246;21.054;2023-12-20T09:19:50;99513.84;;;6.20;100.00
30897;BME280;64229;52.246;21.054;2023-12-20T09:22:17;99515.44;;;6.21;100.00
30897;BME280;64229;52.246;21.054;2023-12-20T09:24:43;99514.75;;;6.04;100.00
30897;BME280;64229;52.246;21.054;2023-12-20T09:27:08;99506.88;;;6.09;100.00
30897;BME280;64229;52.246;21.054;2023-12-20T09:29:34;99514.13;;;6.24;100.00
30897;BME280;64229;52.246;21.054;2023-12-20T09:31:59;99510.19;;;6.31;100.00
30897;BME280;64229;52.246;21.054;2023-12-20T09:34:24;99502.91;;;6.59;100.00
30897;BME280;64229;52.246;21.054;2023-12-20T09:36:51;99496.53;;;6.50;100.00
30897;BME280;64229;52.246;21.054;2023-12-20T09:39:18;99496.81;;;6.53;100.00
30897;BME280;64229;52.246;21.054;2023-12-20T09:42:06;99494.56;;;6.30;100.00
30897;BME280;64229;52.246;21.054;2023-12-20T09:44:32;99494.22;;;6.21;100.00
30897;BME280;64229;52.246;21.054;2023-12-20T09:47:04;99484.69;;;6.20;100.00
30897;BME280;64229;52.246;21.054;2023-12-20T09:49:30;99483.63;;;6.21;100.00
30897;BME280;64229;52.246;21.054;2023-12-20T09:51:57;99487.28;;;6.10;100.00
30897;BME280;64229;52.246;21.054;2023-12-20T09:54:25;99482.25;;;6.14;100.00
30897;BME280;64229;52.246;21.054;2023-12-20T09:56:52;99478.06;;;6.18;100.00
30897;BME280;64229;52.246;21.054;2023-12-20T09:59:17;99487.59;;;6.19;100.00
30897;BME280;64229;52.246;21.054;2023-12-20T10:01:43;99480.63;;;6.50;100.00
30897;BME280;64229;52.246;21.054;2023-12-20T10:04:10;99478.78;;;6.50;100.00
30897;BME280;64229;52.246;21.054;2023-12-20T10:06:44;99474.22;;;6.41;100.00
30897;BME280;64229;52.246;21.054;2023-12-20T10:09:10;99484.66;;;6.62;100.00
30897;BME280;64229;52.246;21.054;2023-12-20T10:11:36;99486.66;;;6.40;100.00
30897;BME280;64229;52.246;21.054;2023-12-20T10:14:08;99470.38;;;6.21;100.00
30897;BME280;64229;52.246;21.054;2023-12-20T10:16:33;99484.03;;;6.45;100.00
30897;BME280;64229;52.246;21.054;2023-12-20T10:19:00;99483.75;;;6.42;100.00
30897;BME280;64229;52.246;21.054;2023-12-20T10:21:29;99477.72;;;6.51;100.00
30897;BME280;64229;52.246;21.054;2023-12-20T10:23:56;99476.88;;;6.46;100.00
30897;BME280;64229;52.246;21.054;2023-12-20T10:26:26;99467.47;;;6.18;100.00
30897;BME280;64229;52.246;21.054;2023-12-20T10:28:56;99461.59;;;6.16;100.00
30897;BME280;64229;52.246;21.054;2023-12-20T10:31:29;99466.53;;;6.39;100.00
30897;BME280;64229;52.246;21.054;2023-12-20T10:33:58;99464.41;;;6.41;100.00
30897;BME280;64229;52.246;21.054;2023-12-20T10:36:25;99465.63;;;6.23;100.00
30897;BME280;64229;52.246;21.054;2023-12-20T10:38:52;99461.97;;;6.34;100.00
30897;BME280;64229;52.246;21.054;2023-12-20T10:41:24;99458.22;;;6.25;100.00
30897;BME280;64229;52.246;21.054;2023-12-20T10:43:51;99444.25;;;6.40;100.00
30897;BME280;64229;52.246;21.054;2023-12-20T10:46:18;99459.38;;;6.45;100.00
30897;BME280;64229;52.246;21.054;2023-12-20T10:48:44;99467.59;;;6.43;100.00
30897;BME280;64229;52.246;21.054;2023-12-20T10:51:11;99457.25;;;6.42;100.00
30897;BME280;64229;52.246;21.054;2023-12-20T10:53:37;99468.97;;;6.56;100.00
30897;BME280;64229;52.246;21.054;2023-12-20T10:56:06;99469.28;;;6.59;100.00
30897;BME280;64229;52.246;21.054;2023-12-20T10:58:33;99463.88;;;6.39;100.00
30897;BME280;64229;52.246;21.054;2023-12-20T11:01:01;99459.91;;;6.42;100.00
30897;BME280;64229;52.246;21.054;2023-12-20T11:03:34;99454.94;;;6.55;100.00
30897;BME280;64229;52.246;21.054;2023-12-20T11:08:35;99449.78;;;6.33;100.00
30897;BME280;64229;52.246;21.054;2023-12-20T11:11:07;99422.38;;;6.13;100.00
30897;BME280;64229;52.246;21.054;2023-12-20T11:13:40;99430.16;;;6.29;100.00
30897;BME280;64229;52.246;21.054;2023-12-20T11:16:09;99432.34;;;6.43;100.00
30897;BME280;64229;52.246;21.054;2023-12-20T11:18:35;99429.69;;;6.43;100.00
30897;BME280;64229;52.246;21.054;2023-12-20T11:21:02;99423.50;;;6.27;100.00
30897;BME280;64229;52.246;21.054;2023-12-20T11:23:29;99380.34;;;6.31;100.00
30897;BME280;64229;52.246;21.054;2023-12-20T11:25:56;99414.56;;;6.38;100.00
30897;BME280;64229;52.246;21.054;2023-12-20T11:28:25;99397.50;;;6.19;100.00
30897;BME280;64229;52.246;21.054;2023-12-20T11:30:54;99409.06;;;6.50;100.00
30897;BME280;64229;52.246;21.054;2023-12-20T11:33:57;99408.47;;;6.43;100.00
30897;BME280;64229;52.246;21.054;2023-12-20T11:36:19;99405.34;;;6.51;100.00
30897;BME280;64229;52.246;21.054;2023-12-20T11:38:58;99398.94;;;6.47;100.00
30897;BME280;64229;52.246;21.054;2023-12-20T11:41:25;99397.31;;;6.35;100.00
30897;BME280;64229;52.246;21.054;2023-12-20T11:43:54;99397.34;;;6.41;100.00
30897;BME280;64229;52.246;21.054;2023-12-20T11:46:20;99384.19;;;6.61;100.00
30897;BME280;64229;52.246;21.054;2023-12-20T11:48:46;99388.91;;;6.59;100.00
30897;BME280;64229;52.246;21.054;2023-12-20T11:51:13;99378.31;;;6.49;100.00
30897;BME280;64229;52.246;21.054;2023-12-20T11:53:41;99384.63;;;6.43;100.00
30897;BME280;64229;52.246;21.054;2023-12-20T11:56:08;99378.00;;;6.45;100.00
30897;BME280;64229;52.246;21.054;2023-12-20T11:58:34;99378.03;;;6.50;100.00
30897;BME280;64229;52.246;21.054;2023-12-20T12:00:59;99375.56;;;6.33;100.00
30897;BME280;64229;52.246;21.054;2023-12-20T12:03:25;99367.84;;;6.27;100.00
30897;BME280;64229;52.246;21.054;2023-12-20T12:05:51;99372.41;;;6.31;100.00
30897;BME280;64229;52.246;21.054;2023-12-20T12:08:19;99377.72;;;6.42;100.00
30897;BME280;64229;52.246;21.054;2023-12-20T12:10:45;99369.97;;;6.25;100.00
30897;BME280;64229;52.246;21.054;2023-12-20T12:13:10;99364.41;;;6.21;100.00
30897;BME280;64229;52.246;21.054;2023-12-20T12:15:36;99364.41;;;6.26;100.00
30897;BME280;64229;52.246;21.054;2023-12-20T12:18:03;99369.16;;;6.24;100.00
30897;BME280;64229;52.246;21.054;2023-12-20T12:20:30;99354.41;;;6.38;100.00
30897;BME280;64229;52.246;21.054;2023-12-20T12:23:05;99364.00;;;6.55;100.00
30897;BME280;64229;52.246;21.054;2023-12-20T12:25:32;99351.78;;;6.54;100.00
30897;BME280;64229;52.246;21.054;2023-12-20T12:27:59;99362.84;;;6.35;100.00
30897;BME280;64229;52.246;21.054;2023-12-20T12:30:25;99355.97;;;6.34;100.00
30897;BME280;64229;52.246;21.054;2023-12-20T12:32:55;99358.03;;;6.17;100.00
30897;BME280;64229;52.246;21.054;2023-12-20T12:35:21;99345.84;;;6.26;100.00
30897;BME280;64229;52.246;21.054;2023-12-20T12:37:47;99342.88;;;6.13;100.00
30897;BME280;64229;52.246;21.054;2023-12-20T12:40:14;99332.25;;;6.02;100.00
30897;BME280;64229;52.246;21.054;2023-12-20T12:42:41;99347.13;;;6.08;100.00
30897;BME280;64229;52.246;21.054;2023-12-20T12:45:07;99341.28;;;6.06;100.00
30897;BME280;64229;52.246;21.054;2023-12-20T12:47:34;99342.03;;;6.02;100.00